Time;durP1;ratioP1;P1;durP2;ratioP2;P2;SDS_P1;SDS_P2;PMS_P1;PMS_P2;Temp;Humidity;BMP_temperature;BMP_pressure;BME280_temperature;BME280_humidity;BME280_pressure;Samples;Min_cycle;Max_cycle;Signal;HPM_P1;HPM_P2
2023/04/28 00:00:28;;;;;;;20.83;18.88;;;4.40;99.90;;;;;;5066973;28;20604;-46
2023/04/28 00:02:53;;;;;;;19.93;18.23;;;4.40;99.90;;;;;;5067948;28;20189;-49
2023/04/28 00:05:21;;;;;;;19.90;18.10;;;4.40;99.90;;;;;;5046594;28;20443;-46
2023/04/28 00:07:47;;;;;;;19.42;17.63;;;4.40;99.90;;;;;;5065903;28;20206;-48
2023/04/28 00:10:13;;;;;;;19.07;17.27;;;4.40;99.90;;;;;;5067624;28;20544;-48
2023/04/28 00:12:38;;;;;;;18.63;16.80;;;4.40;99.90;;;;;;5067171;28;20193;-48
2023/04/28 00:15:04;;;;;;;19.60;17.80;;;4.40;99.90;;;;;;5068215;28;20747;-50
2023/04/28 00:17:30;;;;;;;19.80;17.93;;;4.30;99.90;;;;;;5067914;28;20270;-48
2023/04/28 00:19:56;;;;;;;19.73;17.87;;;4.40;99.90;;;;;;5063377;28;20959;-48
2023/04/28 00:22:22;;;;;;;19.10;17.40;;;4.40;99.90;;;;;;5066508;28;20248;-47
2023/04/28 00:24:47;;;;;;;19.83;17.90;;;4.40;99.90;;;;;;5067493;28;20228;-49
2023/04/28 00:27:13;;;;;;;19.30;17.60;;;4.40;99.90;;;;;;5069911;28;20635;-52
2023/04/28 00:29:38;;;;;;;18.70;17.00;;;4.30;99.90;;;;;;5068894;28;20204;-50
2023/04/28 00:32:04;;;;;;;19.40;17.77;;;4.40;99.90;;;;;;5074050;28;20189;-50
2023/04/28 00:34:36;;;;;;;19.33;17.73;;;4.40;99.90;;;;;;5072184;28;20766;-48
2023/04/28 00:37:02;;;;;;;18.83;17.15;;;4.30;99.90;;;;;;5072267;28;20264;-50
2023/04/28 00:39:28;;;;;;;18.42;16.92;;;4.30;99.90;;;;;;5071693;28;20185;-52
2023/04/28 00:41:53;;;;;;;20.00;17.97;;;4.30;99.90;;;;;;5071822;28;20238;-46
2023/04/28 00:44:19;;;;;;;19.00;17.40;;;4.30;99.90;;;;;;5071946;28;20708;-48
2023/04/28 00:46:45;;;;;;;18.33;16.63;;;4.20;99.90;;;;;;5067505;28;20201;-48
2023/04/28 00:49:11;;;;;;;19.02;17.42;;;4.20;99.90;;;;;;5071977;28;20197;-48
2023/04/28 00:51:36;;;;;;;20.27;18.37;;;4.20;99.90;;;;;;5071772;28;20189;-47
2023/04/28 00:54:04;;;;;;;19.90;18.00;;;4.20;99.90;;;;;;5069576;28;20536;-48
2023/04/28 00:56:30;;;;;;;19.10;17.50;;;4.20;99.90;;;;;;5074300;28;20185;-48
2023/04/28 00:58:56;;;;;;;19.57;17.77;;;4.20;99.90;;;;;;5071437;28;20327;-48
2023/04/28 01:01:22;;;;;;;20.13;18.13;;;4.20;99.90;;;;;;5071678;28;20427;-50
2023/04/28 01:03:48;;;;;;;19.60;17.87;;;4.20;99.90;;;;;;5070953;28;20227;-46
2023/04/28 01:06:15;;;;;;;19.87;17.90;;;4.20;99.90;;;;;;5071120;28;20310;-50
2023/04/28 01:08:41;;;;;;;18.98;17.25;;;4.10;99.90;;;;;;5070944;28;20443;-49
2023/04/28 01:11:09;;;;;;;19.42;17.77;;;4.10;99.90;;;;;;5070664;28;20707;-48
2023/04/28 01:13:34;;;;;;;19.38;17.58;;;4.20;99.90;;;;;;5070692;28;20193;-47
2023/04/28 01:16:00;;;;;;;19.23;17.60;;;4.10;99.90;;;;;;5069904;28;21077;-46
2023/04/28 01:18:26;;;;;;;19.03;17.33;;;4.20;99.90;;;;;;5050056;28;20241;-50
2023/04/28 01:20:52;;;;;;;18.98;17.33;;;4.20;99.90;;;;;;5070761;28;20701;-50
2023/04/28 01:23:18;;;;;;;19.60;17.80;;;4.20;99.90;;;;;;5070395;28;20260;-51
2023/04/28 01:25:43;;;;;;;18.43;16.93;;;4.20;99.90;;;;;;5068884;28;20177;-52
2023/04/28 01:28:10;;;;;;;18.90;17.10;;;4.20;99.90;;;;;;5070919;28;20173;-47
2023/04/28 01:30:36;;;;;;;19.98;18.13;;;4.20;99.90;;;;;;5070270;28;20652;-48
2023/04/28 01:33:02;;;;;;;18.57;17.07;;;4.20;99.90;;;;;;5070150;28;20177;-52
2023/04/28 01:35:28;;;;;;;19.50;17.80;;;4.20;99.90;;;;;;5070289;28;20205;-53
2023/04/28 01:37:53;;;;;;;20.17;18.07;;;4.20;99.90;;;;;;5069510;28;20203;-54
2023/04/28 01:40:19;;;;;;;18.50;16.90;;;4.20;99.90;;;;;;5069549;28;20432;-51
2023/04/28 01:42:45;;;;;;;19.30;17.50;;;4.20;99.90;;;;;;5068099;28;20231;-49
2023/04/28 01:45:11;;;;;;;19.67;17.70;;;4.20;99.90;;;;;;5069432;28;20234;-49
2023/04/28 01:47:36;;;;;;;19.70;18.00;;;4.20;99.90;;;;;;5069580;28;20246;-48
2023/04/28 01:50:02;;;;;;;20.03;18.10;;;4.20;99.90;;;;;;5069838;28;20453;-52
2023/04/28 01:52:28;;;;;;;18.30;16.80;;;4.20;99.90;;;;;;5070194;28;20197;-53
2023/04/28 01:54:54;;;;;;;19.93;17.93;;;4.20;99.90;;;;;;5070604;28;20223;-49
2023/04/28 01:57:19;;;;;;;19.73;18.03;;;4.10;99.90;;;;;;5052567;28;20193;-47
2023/04/28 01:59:45;;;;;;;20.13;18.33;;;4.10;99.90;;;;;;5068161;28;20181;-50
2023/04/28 02:02:11;;;;;;;19.27;17.63;;;4.10;99.90;;;;;;5069943;28;20537;-54
2023/04/28 02:04:37;;;;;;;18.80;17.10;;;4.00;99.90;;;;;;5069087;28;20809;-51
2023/04/28 02:07:03;;;;;;;19.15;17.30;;;4.10;99.90;;;;;;5066572;28;20192;-51
2023/04/28 02:09:29;;;;;;;19.83;18.17;;;4.00;99.90;;;;;;5069678;28;20185;-49
2023/04/28 02:11:54;;;;;;;20.20;18.30;;;4.00;99.90;;;;;;5069473;28;20532;-48
2023/04/28 02:14:20;;;;;;;19.10;17.43;;;4.00;99.90;;;;;;5068873;28;20247;-51
2023/04/28 02:16:46;;;;;;;20.47;18.57;;;4.00;99.90;;;;;;5070166;28;20173;-48
2023/04/28 02:19:11;;;;;;;19.53;17.70;;;3.90;99.90;;;;;;5063376;28;20181;-51
2023/04/28 02:21:37;;;;;;;19.83;18.20;;;3.90;99.90;;;;;;5069806;28;20588;-52
2023/04/28 02:24:03;;;;;;;19.47;17.63;;;3.90;99.90;;;;;;5070050;28;20320;-48
2023/04/28 02:26:29;;;;;;;17.98;16.58;;;3.80;99.90;;;;;;5068922;28;20185;-49
2023/04/28 02:28:54;;;;;;;19.13;17.43;;;3.80;99.90;;;;;;5068788;28;20204;-52
2023/04/28 02:31:21;;;;;;;19.20;17.40;;;3.80;99.90;;;;;;5070727;28;20209;-50
2023/04/28 02:33:46;;;;;;;20.77;18.25;;;3.80;99.90;;;;;;5069143;28;20291;-47
2023/04/28 02:36:12;;;;;;;19.23;17.60;;;3.80;99.90;;;;;;5069053;28;20300;-52
2023/04/28 02:38:40;;;;;;;19.67;17.67;;;3.80;99.90;;;;;;5069321;28;20186;-53
2023/04/28 02:41:08;;;;;;;19.02;17.35;;;3.70;99.90;;;;;;5070123;28;20239;-49
2023/04/28 02:43:35;;;;;;;20.70;18.75;;;3.70;99.90;;;;;;5067828;28;20537;-46
2023/04/28 02:46:02;;;;;;;19.15;17.35;;;3.70;99.90;;;;;;5069322;28;20710;-49
2023/04/28 02:48:27;;;;;;;19.85;17.92;;;3.70;99.90;;;;;;5065159;28;20184;-52
2023/04/28 02:50:53;;;;;;;18.83;17.23;;;3.70;99.90;;;;;;5068698;28;20203;-47
2023/04/28 02:53:19;;;;;;;20.13;18.23;;;3.60;99.90;;;;;;5069365;28;20386;-48
2023/04/28 02:55:45;;;;;;;20.97;18.87;;;3.70;99.90;;;;;;5066183;28;20230;-53
2023/04/28 02:58:11;;;;;;;18.23;16.63;;;3.70;99.90;;;;;;5069402;28;20419;-45
2023/04/28 03:00:36;;;;;;;18.13;16.53;;;3.70;99.90;;;;;;5069598;28;20418;-50
2023/04/28 03:03:02;;;;;;;19.10;17.50;;;3.70;99.90;;;;;;5068030;28;20173;-50
2023/04/28 03:05:28;;;;;;;19.07;17.33;;;3.80;99.90;;;;;;5069242;28;20181;-48
2023/04/28 03:07:54;;;;;;;18.20;16.67;;;3.80;99.90;;;;;;5069130;28;20639;-45
2023/04/28 03:10:19;;;;;;;17.77;16.40;;;3.80;99.90;;;;;;5069171;28;20872;-51
2023/04/28 03:12:45;;;;;;;18.47;16.77;;;3.90;99.90;;;;;;5068987;28;20181;-48
2023/04/28 03:15:11;;;;;;;19.00;17.30;;;3.90;99.90;;;;;;5067941;28;20698;-51
2023/04/28 03:17:38;;;;;;;18.90;17.10;;;4.00;99.90;;;;;;5068846;28;20187;-47
2023/04/28 03:20:04;;;;;;;19.25;17.42;;;4.00;99.90;;;;;;5064869;28;20177;-47
2023/04/28 03:22:30;;;;;;;19.50;17.70;;;4.10;99.90;;;;;;5050847;28;20259;-53
2023/04/28 03:24:56;;;;;;;19.87;18.17;;;4.10;99.90;;;;;;5068878;28;20177;-51
2023/04/28 03:27:22;;;;;;;19.00;17.30;;;4.10;99.90;;;;;;5068773;28;20419;-49
2023/04/28 03:29:47;;;;;;;19.35;17.75;;;4.20;99.90;;;;;;5068579;28;20215;-51
2023/04/28 03:32:13;;;;;;;19.60;18.10;;;4.20;99.90;;;;;;5071171;28;20588;-48
2023/04/28 03:34:38;;;;;;;18.77;17.07;;;4.20;99.90;;;;;;5069272;28;20246;-51
2023/04/28 03:37:04;;;;;;;18.63;17.00;;;4.20;99.90;;;;;;5068571;28;20169;-46
2023/04/28 03:39:30;;;;;;;19.73;17.70;;;4.20;99.90;;;;;;5068919;28;20818;-48
2023/04/28 03:41:55;;;;;;;19.07;17.37;;;4.30;99.90;;;;;;5068535;28;20220;-50
2023/04/28 03:44:22;;;;;;;17.47;15.97;;;4.30;99.90;;;;;;5066213;28;20181;-48
2023/04/28 03:46:48;;;;;;;18.35;16.75;;;4.30;99.90;;;;;;5067516;28;20207;-51
2023/04/28 03:49:14;;;;;;;18.50;16.80;;;4.40;99.90;;;;;;5067808;28;20181;-50
2023/04/28 03:51:40;;;;;;;18.20;16.27;;;4.40;99.90;;;;;;5067582;28;20666;-46
2023/04/28 03:54:06;;;;;;;19.47;17.67;;;4.40;99.90;;;;;;5068207;28;20209;-51
2023/04/28 03:56:32;;;;;;;19.20;17.40;;;4.40;99.90;;;;;;5067628;28;20299;-50
2023/04/28 03:58:57;;;;;;;19.02;17.33;;;4.50;99.90;;;;;;5068238;28;20185;-51
2023/04/28 04:01:23;;;;;;;19.13;17.33;;;4.50;99.90;;;;;;5062173;28;20188;-51
2023/04/28 04:03:49;;;;;;;18.77;17.10;;;4.50;99.90;;;;;;5067787;28;20264;-49
2023/04/28 04:06:15;;;;;;;18.27;16.67;;;4.60;99.90;;;;;;5067513;28;20470;-52
2023/04/28 04:08:41;;;;;;;18.30;16.77;;;4.60;99.90;;;;;;5066274;28;20235;-50
2023/04/28 04:11:07;;;;;;;17.77;16.38;;;4.70;99.90;;;;;;5063168;28;20478;-49
2023/04/28 04:13:32;;;;;;;18.73;17.03;;;4.70;99.90;;;;;;5066868;28;20227;-45
2023/04/28 04:15:58;;;;;;;18.47;16.77;;;4.80;99.90;;;;;;5068108;28;20184;-50
2023/04/28 04:18:24;;;;;;;18.60;16.90;;;4.80;99.90;;;;;;5068445;28;20177;-49
2023/04/28 04:20:49;;;;;;;18.37;16.67;;;4.90;99.90;;;;;;5067827;28;20185;-49
2023/04/28 04:23:15;;;;;;;17.20;15.50;;;5.00;99.90;;;;;;5068232;28;20236;-49
2023/04/28 04:25:42;;;;;;;19.38;17.50;;;5.10;99.90;;;;;;5067202;28;20217;-47
2023/04/28 04:28:08;;;;;;;17.40;15.90;;;5.20;99.90;;;;;;5068389;28;20709;-46
2023/04/28 04:30:33;;;;;;;18.37;16.80;;;5.30;99.90;;;;;;5060037;28;20185;-48
2023/04/28 04:32:59;;;;;;;17.80;16.20;;;5.40;99.90;;;;;;5068631;28;20217;-46
2023/04/28 04:35:24;;;;;;;17.93;16.37;;;5.50;99.90;;;;;;5066089;28;20217;-49
2023/04/28 04:37:50;;;;;;;18.27;16.47;;;5.60;99.90;;;;;;5068212;28;20613;-48
2023/04/28 04:40:16;;;;;;;18.27;16.80;;;5.70;99.90;;;;;;5067761;28;20205;-45
2023/04/28 04:42:41;;;;;;;19.03;17.17;;;5.80;99.90;;;;;;5068080;28;20216;-47
2023/04/28 04:45:07;;;;;;;16.60;15.20;;;6.00;99.90;;;;;;5067725;28;20798;-46
2023/04/28 04:47:33;;;;;;;16.10;14.70;;;6.10;99.90;;;;;;5067897;28;20220;-49
2023/04/28 04:49:58;;;;;;;17.27;15.67;;;6.30;99.90;;;;;;5063662;28;20937;-48
2023/04/28 04:52:24;;;;;;;17.23;15.67;;;6.40;99.90;;;;;;5067998;28;20190;-44
2023/04/28 04:54:50;;;;;;;16.00;14.60;;;6.60;99.90;;;;;;5066674;28;20298;-47
2023/04/28 04:57:16;;;;;;;15.70;14.07;;;6.80;99.90;;;;;;5068308;28;20803;-48
2023/04/28 04:59:41;;;;;;;16.97;15.33;;;7.00;99.90;;;;;;5068168;28;20179;-45
2023/04/28 05:02:07;;;;;;;17.27;15.87;;;7.20;99.10;;;;;;5067101;28;20541;-51
2023/04/28 05:04:33;;;;;;;16.30;14.90;;;7.40;98.50;;;;;;5067665;28;20198;-48
2023/04/28 05:06:58;;;;;;;16.10;14.70;;;7.60;97.40;;;;;;5067819;28;20553;-46
2023/04/28 05:09:24;;;;;;;16.37;15.07;;;7.80;96.40;;;;;;5067832;28;20280;-47
2023/04/28 05:11:50;;;;;;;16.33;15.00;;;8.00;95.70;;;;;;5067271;28;20195;-45
2023/04/28 05:14:16;;;;;;;13.27;12.27;;;8.20;94.70;;;;;;5071307;28;21259;-51
2023/04/28 05:16:41;;;;;;;15.50;14.30;;;8.30;94.60;;;;;;5069989;28;20208;-46
2023/04/28 05:19:07;;;;;;;15.23;13.93;;;8.40;93.80;;;;;;5071146;28;20239;-48
2023/04/28 05:21:33;;;;;;;16.23;14.80;;;8.50;93.60;;;;;;5071344;28;20263;-45
2023/04/28 05:23:58;;;;;;;15.80;14.60;;;8.60;92.90;;;;;;5067255;28;20683;-48
2023/04/28 05:26:25;;;;;;;16.10;14.77;;;8.70;92.60;;;;;;5069991;28;22187;-51
2023/04/28 05:28:50;;;;;;;15.10;13.90;;;8.80;92.00;;;;;;5071075;28;20675;-46
2023/04/28 05:31:16;;;;;;;15.33;14.03;;;8.90;91.70;;;;;;5066465;28;21465;-51
2023/04/28 05:33:42;;;;;;;14.50;13.20;;;8.90;91.40;;;;;;5060856;28;20725;-45
2023/04/28 05:36:08;;;;;;;15.00;13.90;;;8.90;91.00;;;;;;5061893;28;20542;-50
2023/04/28 05:38:34;;;;;;;15.40;14.20;;;8.90;90.40;;;;;;5056810;28;20189;-46
2023/04/28 05:41:01;;;;;;;15.53;14.00;;;9.00;90.00;;;;;;5040094;28;20434;-47
2023/04/28 05:43:26;;;;;;;16.70;15.40;;;9.10;90.40;;;;;;5057787;28;20938;-51
2023/04/28 05:45:52;;;;;;;15.40;14.20;;;9.20;90.20;;;;;;5061454;28;20585;-51
2023/04/28 05:48:18;;;;;;;15.37;14.27;;;9.30;89.50;;;;;;5043135;28;20182;-45
2023/04/28 05:50:44;;;;;;;15.60;14.30;;;9.30;87.90;;;;;;5062612;28;20172;-45
2023/04/28 05:53:10;;;;;;;17.40;15.63;;;9.40;87.70;;;;;;5062407;28;20522;-51
2023/04/28 05:55:36;;;;;;;15.23;14.03;;;9.50;87.90;;;;;;5062512;28;20985;-48
2023/04/28 05:58:02;;;;;;;15.97;14.77;;;9.50;87.10;;;;;;5061708;28;20230;-49
2023/04/28 06:00:28;;;;;;;16.03;14.63;;;9.50;86.60;;;;;;5062342;28;20232;-51
2023/04/28 06:02:53;;;;;;;16.80;15.50;;;9.50;86.00;;;;;;5061243;28;20433;-50
2023/04/28 06:05:19;;;;;;;16.40;15.00;;;9.60;86.30;;;;;;5062163;28;20216;-49
2023/04/28 06:07:45;;;;;;;16.97;15.47;;;9.70;86.00;;;;;;5061875;28;20189;-48
2023/04/28 06:10:11;;;;;;;18.07;16.40;;;9.70;86.10;;;;;;5060774;28;20457;-49
2023/04/28 06:12:37;;;;;;;17.40;16.00;;;9.70;85.40;;;;;;5062403;28;20587;-45
2023/04/28 06:15:03;;;;;;;17.70;16.30;;;9.80;84.80;;;;;;5060775;28;20460;-47
2023/04/28 06:17:31;;;;;;;17.20;15.90;;;9.90;84.60;;;;;;5061572;28;20184;-47
2023/04/28 06:19:58;;;;;;;17.37;16.10;;;10.00;83.00;;;;;;5061687;28;20523;-51
2023/04/28 06:22:24;;;;;;;17.70;16.30;;;10.20;82.10;;;;;;5059960;28;20485;-50
2023/04/28 06:24:50;;;;;;;17.37;16.17;;;10.40;81.70;;;;;;5060365;28;20435;-46
2023/04/28 06:27:16;;;;;;;16.37;15.00;;;10.60;81.90;;;;;;5060247;28;20434;-54
2023/04/28 06:29:42;;;;;;;16.50;15.20;;;10.90;81.80;;;;;;5059526;28;20574;-49
2023/04/28 06:32:08;;;;;;;15.87;14.57;;;11.10;79.10;;;;;;5060214;28;20321;-51
2023/04/28 06:34:34;;;;;;;17.70;16.50;;;11.20;77.50;;;;;;5059003;28;20212;-48
2023/04/28 06:37:00;;;;;;;16.50;15.13;;;11.30;76.30;;;;;;5061414;28;20193;-47
2023/04/28 06:39:26;;;;;;;16.73;15.53;;;11.50;75.90;;;;;;5040027;28;20948;-51
2023/04/28 06:41:52;;;;;;;17.20;15.87;;;11.50;75.30;;;;;;5057246;28;20449;-46
2023/04/28 06:44:17;;;;;;;16.90;15.70;;;11.60;76.10;;;;;;5059879;28;20925;-46
2023/04/28 06:46:43;;;;;;;17.13;15.67;;;11.70;74.20;;;;;;5061159;28;20431;-49
2023/04/28 06:49:09;;;;;;;15.50;14.40;;;11.80;73.40;;;;;;5058383;28;20331;-47
2023/04/28 06:51:35;;;;;;;16.00;14.90;;;11.90;73.90;;;;;;5038983;28;20731;-47
2023/04/28 06:54:00;;;;;;;16.97;15.87;;;12.00;72.50;;;;;;5056711;28;20201;-49
2023/04/28 06:56:26;;;;;;;17.43;16.03;;;12.00;72.00;;;;;;5057720;28;20192;-45
2023/04/28 06:58:57;;;;;;;16.20;15.00;;;11.90;72.50;;;;;;5056944;28;20531;-48
2023/04/28 07:01:24;;;;;;;16.70;15.40;;;11.90;72.00;;;;;;5057480;28;20227;-50
2023/04/28 07:03:50;;;;;;;15.73;14.47;;;12.10;72.00;;;;;;5056689;28;21002;-47
2023/04/28 07:06:16;;;;;;;15.80;14.60;;;12.20;72.50;;;;;;5058730;28;20427;-48
2023/04/28 07:08:42;;;;;;;14.53;13.43;;;12.20;71.40;;;;;;5059881;28;20439;-48
2023/04/28 07:11:08;;;;;;;15.80;14.70;;;12.20;70.50;;;;;;5058980;28;20863;-51
2023/04/28 07:13:33;;;;;;;16.67;15.27;;;12.30;71.60;;;;;;5058432;28;20439;-48
2023/04/28 07:16:00;;;;;;;17.73;16.23;;;12.30;71.00;;;;;;5058143;28;20435;-47
2023/04/28 07:18:25;;;;;;;17.37;16.07;;;12.40;71.60;;;;;;5060032;28;20610;-50
2023/04/28 07:20:51;;;;;;;16.33;15.23;;;12.50;71.30;;;;;;5058036;28;20530;-47
2023/04/28 07:23:16;;;;;;;17.80;16.50;;;12.60;70.10;;;;;;5059098;28;20233;-44
2023/04/28 07:25:42;;;;;;;17.20;16.00;;;12.70;69.70;;;;;;5059366;28;20193;-48
2023/04/28 07:28:08;;;;;;;16.97;15.73;;;12.90;69.20;;;;;;5060056;28;20223;-47
2023/04/28 07:30:34;;;;;;;15.60;14.50;;;13.00;68.00;;;;;;5059675;28;20645;-48
2023/04/28 07:33:01;;;;;;;17.07;15.87;;;13.30;68.10;;;;;;5059081;28;20873;-50
2023/04/28 07:35:27;;;;;;;15.30;14.20;;;13.40;66.50;;;;;;5059543;28;20471;-47
2023/04/28 07:37:53;;;;;;;16.40;15.27;;;13.50;66.30;;;;;;5058539;28;20521;-49
2023/04/28 07:40:19;;;;;;;16.60;15.40;;;13.40;64.60;;;;;;5058244;28;20765;-46
2023/04/28 07:42:45;;;;;;;16.10;15.00;;;13.40;65.60;;;;;;5059656;28;20427;-52
2023/04/28 07:45:11;;;;;;;15.77;14.47;;;13.40;66.30;;;;;;5057764;28;20438;-47
2023/04/28 07:47:37;;;;;;;17.23;16.03;;;13.40;65.90;;;;;;5058790;28;20435;-51
2023/04/28 07:50:05;;;;;;;16.47;15.33;;;13.50;65.40;;;;;;5058913;28;20918;-48
2023/04/28 07:52:31;;;;;;;16.60;15.20;;;13.60;65.60;;;;;;5058917;28;20188;-48
2023/04/28 07:54:58;;;;;;;15.50;14.50;;;13.80;64.70;;;;;;5058130;28;20593;-50
2023/04/28 07:57:24;;;;;;;15.63;14.47;;;13.80;64.10;;;;;;5058660;28;20439;-48
2023/04/28 07:59:50;;;;;;;15.37;14.37;;;14.00;64.60;;;;;;5058925;28;21378;-46
2023/04/28 08:02:16;;;;;;;15.97;14.80;;;14.10;62.30;;;;;;5058413;28;20445;-49
2023/04/28 08:04:41;;;;;;;15.43;14.43;;;14.10;61.90;;;;;;5059183;28;20233;-49
2023/04/28 08:07:08;;;;;;;16.30;15.30;;;14.30;61.80;;;;;;5057791;28;20200;-51
2023/04/28 08:09:34;;;;;;;15.50;14.33;;;14.30;61.30;;;;;;5058092;28;20506;-46
2023/04/28 08:12:00;;;;;;;15.83;14.83;;;14.30;59.80;;;;;;5058962;28;20439;-49
2023/04/28 08:14:26;;;;;;;15.80;14.87;;;14.30;60.40;;;;;;5057418;28;20590;-48
2023/04/28 08:16:52;;;;;;;15.93;14.83;;;14.40;60.00;;;;;;5057741;28;20596;-49
2023/04/28 08:19:18;;;;;;;16.43;15.43;;;14.50;59.90;;;;;;5058886;28;20446;-50
2023/04/28 08:21:43;;;;;;;16.50;15.40;;;14.50;59.30;;;;;;5058309;28;20242;-50
2023/04/28 08:24:09;;;;;;;16.23;15.23;;;14.70;59.30;;;;;;5058203;28;20196;-45
2023/04/28 08:26:37;;;;;;;15.70;14.80;;;14.90;58.60;;;;;;5059145;28;20287;-44
2023/04/28 08:29:03;;;;;;;16.70;15.70;;;15.10;58.30;;;;;;5058435;28;20863;-52
2023/04/28 08:31:29;;;;;;;15.43;14.43;;;15.20;57.30;;;;;;5059699;28;20455;-49
2023/04/28 08:33:54;;;;;;;15.17;14.17;;;15.40;57.60;;;;;;5057817;28;20735;-51
2023/04/28 08:36:20;;;;;;;16.80;15.70;;;15.70;57.70;;;;;;5059463;28;20415;-46
2023/04/28 08:38:46;;;;;;;14.23;13.33;;;16.00;55.80;;;;;;5059093;28;20196;-48
2023/04/28 08:41:15;;;;;;;16.20;15.03;;;16.30;55.10;;;;;;5059355;28;20597;-51
2023/04/28 08:43:42;;;;;;;16.60;15.27;;;16.50;54.60;;;;;;5058899;28;20948;-45
2023/04/28 08:46:08;;;;;;;16.60;15.47;;;16.80;54.60;;;;;;5056793;28;20447;-46
2023/04/28 08:48:42;;;;;;;15.63;14.43;;;17.00;54.20;;;;;;5059025;28;20897;-50
2023/04/28 08:51:08;;;;;;;16.03;15.03;;;17.30;51.90;;;;;;5061308;28;20423;-51
2023/04/28 08:53:38;;;;;;;15.43;14.40;;;17.10;50.80;;;;;;5061362;28;20457;-46
2023/04/28 08:56:09;;;;;;;16.80;15.60;;;17.20;51.80;;;;;;5061832;28;20470;-49
2023/04/28 08:58:38;;;;;;;16.10;15.20;;;17.30;51.40;;;;;;5062969;28;20509;-46
2023/04/28 09:01:04;;;;;;;15.17;14.27;;;17.50;50.40;;;;;;5061261;28;20946;-49
2023/04/28 09:03:31;;;;;;;15.80;14.90;;;17.80;50.80;;;;;;5062204;28;20434;-48
2023/04/28 09:05:57;;;;;;;14.87;14.00;;;18.00;49.00;;;;;;5043909;28;20479;-46
2023/04/28 09:08:23;;;;;;;16.30;15.20;;;18.10;48.60;;;;;;5061757;28;20929;-47
2023/04/28 09:11:08;;;;;;;16.17;15.17;;;18.20;49.10;;;;;;5062067;28;20450;-49
2023/04/28 09:13:34;;;;;;;14.73;13.73;;;18.40;48.40;;;;;;5061914;28;20212;-48
2023/04/28 09:16:01;;;;;;;14.17;13.37;;;18.70;48.50;;;;;;5061785;28;20914;-49
2023/04/28 09:18:28;;;;;;;15.00;14.10;;;18.80;46.70;;;;;;5061591;28;20442;-50
2023/04/28 09:21:03;;;;;;;14.47;13.57;;;18.90;46.60;;;;;;5060974;28;20929;-44
2023/04/28 09:23:28;;;;;;;15.23;14.23;;;19.30;46.40;;;;;;5061249;28;20475;-46
2023/04/28 09:26:02;;;;;;;15.07;14.17;;;19.60;44.60;;;;;;5061831;28;20438;-48
2023/04/28 09:28:28;;;;;;;15.20;14.20;;;19.70;43.80;;;;;;5061415;28;20181;-47
2023/04/28 09:30:54;;;;;;;14.70;13.80;;;19.70;42.20;;;;;;5042658;28;20486;-45
2023/04/28 09:33:20;;;;;;;13.33;12.53;;;19.00;43.20;;;;;;5061837;28;20451;-47
2023/04/28 09:35:47;;;;;;;15.50;14.50;;;19.20;44.60;;;;;;5061475;28;20965;-52
2023/04/28 09:38:16;;;;;;;14.90;14.00;;;19.30;43.10;;;;;;5060541;28;20427;-47
2023/04/28 09:40:52;;;;;;;13.40;12.70;;;19.20;42.00;;;;;;5060659;28;20924;-46
2023/04/28 09:43:32;;;;;;;14.07;13.30;;;19.10;42.60;;;;;;5061936;28;20435;-48
2023/04/28 09:46:04;;;;;;;13.90;13.10;;;18.90;41.60;;;;;;5060911;28;20780;-48
2023/04/28 09:48:37;;;;;;;13.40;12.60;;;18.80;41.90;;;;;;5042851;28;20476;-50
2023/04/28 09:51:05;;;;;;;14.33;13.50;;;18.70;41.40;;;;;;5060892;28;20435;-48
2023/04/28 09:53:31;;;;;;;13.40;12.60;;;18.50;41.90;;;;;;5059962;28;20447;-46
2023/04/28 09:55:59;;;;;;;14.87;14.00;;;18.30;42.50;;;;;;5060260;28;20431;-47
2023/04/28 09:58:27;;;;;;;12.97;12.17;;;18.10;42.60;;;;;;5061810;28;20427;-44
2023/04/28 10:00:57;;;;;;;14.33;13.53;;;18.20;43.00;;;;;;5060056;28;20454;-46
2023/04/28 10:03:25;;;;;;;14.10;13.30;;;18.00;42.20;;;;;;5061558;28;20403;-50
2023/04/28 10:05:52;;;;;;;14.13;13.43;;;17.80;42.40;;;;;;5061058;28;20427;-46
2023/04/28 10:08:19;;;;;;;13.03;12.23;;;17.80;42.70;;;;;;5061320;28;20416;-46
2023/04/28 10:10:47;;;;;;;14.50;13.40;;;17.90;43.10;;;;;;5041444;28;20443;-45
2023/04/28 10:13:15;;;;;;;14.20;13.40;;;17.80;42.90;;;;;;5061477;28;20412;-44
2023/04/28 10:15:41;;;;;;;15.20;14.20;;;17.60;43.00;;;;;;5060221;28;20505;-48
2023/04/28 10:18:08;;;;;;;14.50;13.30;;;17.60;44.10;;;;;;5061421;28;20505;-44
2023/04/28 10:20:34;;;;;;;13.50;12.80;;;17.50;44.60;;;;;;5059319;28;20481;-49
2023/04/28 10:23:22;;;;;;;13.83;13.03;;;17.40;44.50;;;;;;5060583;28;20489;-47
2023/04/28 10:25:51;;;;;;;14.17;13.37;;;17.40;44.10;;;;;;5059521;28;20435;-49
2023/04/28 10:28:18;;;;;;;14.00;13.10;;;17.40;45.90;;;;;;5061118;28;20415;-47
2023/04/28 10:31:11;;;;;;;13.67;12.97;;;17.30;45.70;;;;;;5059328;28;21217;-48
2023/04/28 10:33:38;;;;;;;13.73;12.93;;;17.30;47.80;;;;;;5061366;28;20412;-45
2023/04/28 10:36:05;;;;;;;13.70;12.90;;;17.30;47.20;;;;;;5060484;28;21055;-48
2023/04/28 10:38:31;;;;;;;12.27;11.50;;;17.30;47.80;;;;;;5060296;28;20718;-50
2023/04/28 10:41:01;;;;;;;13.60;12.80;;;17.10;45.90;;;;;;5042312;28;20454;-46
2023/04/28 10:43:30;;;;;;;15.37;14.33;;;17.10;47.10;;;;;;5060728;28;20439;-45
2023/04/28 10:45:58;;;;;;;22.73;20.83;;;16.90;51.80;;;;;;5059980;28;20963;-49
2023/04/28 10:48:36;;;;;;;17.80;16.80;;;16.60;56.80;;;;;;5059396;28;20447;-48
2023/04/28 10:51:11;;;;;;;19.90;18.70;;;15.90;64.80;;;;;;5059917;28;20444;-49
2023/04/28 10:53:50;;;;;;;29.13;26.13;;;15.40;68.60;;;;;;5058518;28;20473;-51
2023/04/28 10:56:17;;;;;;;40.53;36.47;;;14.90;74.60;;;;;;5059105;28;20431;-49
2023/04/28 10:58:47;;;;;;;26.47;24.37;;;14.60;75.50;;;;;;5060173;28;20848;-49
2023/04/28 11:01:30;;;;;;;26.80;24.70;;;14.40;79.50;;;;;;5060088;28;20542;-50
2023/04/28 11:04:11;;;;;;;24.90;23.00;;;14.20;84.60;;;;;;5060193;28;20485;-47
2023/04/28 11:06:41;;;;;;;28.60;26.47;;;14.00;89.40;;;;;;5059566;28;20463;-51
2023/04/28 11:09:13;;;;;;;26.83;24.93;;;13.90;93.80;;;;;;5060142;28;20419;-50
2023/04/28 11:12:05;;;;;;;27.83;25.40;;;13.90;99.80;;;;;;5058064;28;20818;-46
2023/04/28 11:14:33;;;;;;;25.00;23.30;;;14.00;99.90;;;;;;5059927;28;20471;-48
2023/04/28 11:17:04;;;;;;;22.33;20.90;;;14.00;99.90;;;;;;5058572;28;20480;-49
2023/04/28 11:19:34;;;;;;;22.37;20.73;;;14.10;99.90;;;;;;5058864;28;21211;-49
2023/04/28 11:22:03;;;;;;;23.57;21.90;;;14.10;99.90;;;;;;5059866;28;20674;-47
2023/04/28 11:24:30;;;;;;;20.77;19.47;;;14.20;99.90;;;;;;5058481;28;20432;-47
2023/04/28 11:26:59;;;;;;;22.33;20.93;;;14.30;99.90;;;;;;5059224;28;20890;-48
2023/04/28 11:29:32;;;;;;;22.07;20.63;;;14.40;99.90;;;;;;5059450;28;20439;-48
2023/04/28 11:31:58;;;;;;;22.30;20.90;;;14.50;99.90;;;;;;5059109;28;20427;-50
2023/04/28 11:34:24;;;;;;;22.30;20.90;;;14.50;99.90;;;;;;5059554;28;20473;-47
2023/04/28 11:36:50;;;;;;;22.67;21.27;;;14.50;99.90;;;;;;5059303;28;20353;-49
2023/04/28 11:39:15;;;;;;;22.40;20.90;;;14.50;99.90;;;;;;5059490;28;20853;-49
2023/04/28 11:41:44;;;;;;;23.07;21.57;;;14.60;99.90;;;;;;5058327;28;20435;-47
2023/04/28 11:44:15;;;;;;;22.33;21.03;;;14.60;99.30;;;;;;5059174;28;20189;-48
2023/04/28 11:46:45;;;;;;;23.20;21.70;;;14.60;98.40;;;;;;5058677;28;21002;-46
2023/04/28 11:49:11;;;;;;;23.77;22.20;;;14.70;99.90;;;;;;5058258;28;20520;-47
2023/04/28 11:51:37;;;;;;;24.50;22.90;;;14.60;98.50;;;;;;5057907;28;20438;-47
2023/04/28 11:54:10;;;;;;;24.10;22.50;;;14.70;98.90;;;;;;5039966;28;20478;-49
2023/04/28 11:56:39;;;;;;;24.50;22.90;;;14.80;99.90;;;;;;5059054;28;20415;-51
2023/04/28 11:59:07;;;;;;;22.60;21.20;;;14.90;99.90;;;;;;5059515;28;20428;-48
2023/04/28 12:01:43;;;;;;;21.93;20.67;;;14.90;99.70;;;;;;5058439;28;20435;-47
2023/04/28 12:04:08;;;;;;;21.33;20.13;;;14.70;98.80;;;;;;5059390;28;20407;-49
2023/04/28 12:06:34;;;;;;;20.80;19.20;;;14.50;99.20;;;;;;5059346;28;20426;-48
2023/04/28 12:09:03;;;;;;;20.90;19.60;;;14.40;98.00;;;;;;5059705;28;20196;-48
2023/04/28 12:11:29;;;;;;;19.57;18.30;;;14.40;98.40;;;;;;5058884;28;20724;-46
2023/04/28 12:14:03;;;;;;;20.47;19.27;;;14.40;98.30;;;;;;5058620;28;20463;-49
2023/04/28 12:16:42;;;;;;;20.50;19.10;;;14.40;98.30;;;;;;5058444;28;20427;-46
2023/04/28 12:19:09;;;;;;;18.70;17.60;;;14.20;95.10;;;;;;5059429;28;20943;-46
2023/04/28 12:21:36;;;;;;;18.30;17.10;;;14.00;94.70;;;;;;5057374;28;20423;-49
2023/04/28 12:24:13;;;;;;;19.87;18.37;;;14.10;96.80;;;;;;5057152;28;20544;-52
2023/04/28 12:26:39;;;;;;;19.37;18.07;;;14.10;95.70;;;;;;5057685;28;20470;-48
2023/04/28 12:29:05;;;;;;;19.20;17.90;;;14.20;95.50;;;;;;5058517;28;20518;-50
2023/04/28 12:31:31;;;;;;;21.70;19.97;;;14.30;95.00;;;;;;5058224;28;20683;-48